INFORMACIÓN METAR y TAF
METAR FOR LFBD
ADDS - METARS form results

(1959 UTC 18 September 2019)
Data provider http://aviationweather.gov/metar/data/
 
METAR text: LFBD 181930Z AUTO 02008KT CAVOK 23/08 Q1017 TEMPO SCT050TCU
Conditions at: LFBD (BORDEAUX/MERIGNA, FR) observed 1930 UTC 18 September 2019
Temperature: 23.0°C (73°F)
Dewpoint: 8.0°C (46°F) [RH = 38%]
Pressure (altimeter): 30.03 inches Hg (1017.0 mb)
Winds: from the NNE (20 degrees) at 9 MPH (8 knots; 4.1 m/s)
Visibility: 6 or more miles (10+ km)
Ceiling: ceiling and visibility are OK
Clouds: unknown
Weather: no significant weather observed at this time

METAR text: LFBD 181900Z AUTO 01007KT 340V040 CAVOK 24/09 Q1017 TEMPO SCT050TCU
Conditions at: LFBD (BORDEAUX/MERIGNA, FR) observed 1900 UTC 18 September 2019
Temperature: 24.0°C (75°F)
Dewpoint: 9.0°C (48°F) [RH = 38%]
Pressure (altimeter): 30.03 inches Hg (1017.0 mb)
Winds: from the N (10 degrees) at 8 MPH (7 knots; 3.6 m/s)
Visibility: 6 or more miles (10+ km)
Ceiling: ceiling and visibility are OK
Clouds: unknown
Weather: no significant weather observed at this time

Forecast for: LFBD (BORDEAUX/MERIGNA, FR)
Text: TAF LFBD 181700Z 1818/1924 02008KT CAVOK TX28/1915Z TN16/1906Z
Forecast period: 1800 UTC 18 September 2019 to 0000 UTC 20 September 2019
Forecast type: FROM: standard forecast or significant change
Winds: from the NNE (20 degrees) at 9 MPH (8 knots; 4.1 m/s)
Visibility: 6 or more miles 10+ km)
Ceiling: unknown
Clouds: missing
Weather: no significant weather forecast for this period
Text: PROB30
Forecast period: 2000 UTC 18 September 2019 to 0000 UTC 19 September 2019
Forecast type: TEMPORARY: The following changes expected for less than half the time period
Visibility: missing
Ceiling: at least 12,000 feet AGL
Clouds: scattered clouds at 5000 feet AGL
Weather: no significant weather forecast for this period

 MAPA DE AEROPUERTO

 INFORMACIÓN DE PISTA
Pista 05 Longitud 10171 ft Ancho 148 ft
Elevación 160 ft Umbral desplazado 0 ft Rumbo de pista 46
Pista 23 Longitud 10171 ft Ancho 148 ft
Elevación 151 ft Umbral desplazado 0 ft Rumbo de pista 226
Pista 11 Longitud 7923 ft Ancho 148 ft
Elevación 153 ft Umbral desplazado 0 ft Rumbo de pista 107
Pista 29 Longitud 7923 ft Ancho 148 ft
Elevación 160 ft Umbral desplazado 0 ft Rumbo de pista 287

 FRECUANCIAS DEL AEROPUERTO
Tipo APP Nombre AQUITAINE Frecuencia 118.6 MHZ
Tipo ARR Nombre APP Frecuencia 121.2 MHZ
Tipo ATIS Nombre ATIS Frecuencia 131.15 MHZ
Tipo GND Nombre GND Frecuencia 121.9 MHZ
Tipo INFO Nombre AQUITAINE Frecuencia 120.575 MHZ
Tipo OPS Nombre OPNS Frecuencia 143.175 MHZ
Tipo TWR Nombre TWR Frecuencia 118.3 MHZ

 RADIO AYUDAS DEL AEROPUERTO
Tipo NDB Nombre Bordeaux Frecuencia 393 KHZ
Tipo TACAN Nombre Bordeaux Frecuencia 114400 KHZ
Tipo NDB Nombre Bordeaux Frecuencia 318 KHZ
Tipo VOR-DME Nombre Bordeaux Frecuencia 113750 KHZ
Tipo NDB Nombre Bordeaux Frecuencia 361 KHZ




Normativa | Spanair Virtual © 2019 |